createdAt,value
2023-03-30T00:04:23.278Z,2.10
2023-03-30T00:14:44.553Z,2.30
2023-03-30T00:25:08.863Z,2.03
2023-03-30T00:35:32.914Z,2.35
2023-03-30T00:45:57.419Z,2.20
2023-03-30T00:56:24.628Z,2.30
2023-03-30T01:06:47.519Z,2.90
2023-03-30T01:17:17.592Z,2.40
2023-03-30T01:27:50.595Z,2.47
2023-03-30T01:38:18.040Z,2.97
2023-03-30T01:48:47.412Z,2.45
2023-03-30T01:59:18.214Z,2.60
2023-03-30T02:09:41.031Z,2.80
2023-03-30T02:20:02.512Z,2.65
2023-03-30T02:30:23.916Z,2.15
2023-03-30T02:41:02.473Z,2.85
2023-03-30T02:51:45.776Z,2.40
2023-03-30T03:02:15.591Z,2.30
2023-03-30T03:12:39.822Z,2.60
2023-03-30T03:23:01.553Z,2.78
2023-03-30T03:33:27.712Z,2.40
2023-03-30T03:44:03.492Z,2.50
2023-03-30T03:54:24.860Z,2.85
2023-03-30T04:04:47.652Z,2.20
2023-03-30T04:15:09.750Z,2.10
2023-03-30T04:25:58.381Z,2.30
2023-03-30T04:36:58.791Z,2.00
2023-03-30T04:47:26.684Z,2.17
2023-03-30T04:58:14.712Z,2.20
2023-03-30T05:09:05.160Z,2.22
2023-03-30T05:19:56.547Z,2.40
2023-03-30T05:30:39.212Z,2.15
2023-03-30T05:41:20.831Z,2.47
2023-03-30T05:52:02.698Z,2.10
2023-03-30T06:02:45.051Z,2.75
2023-03-30T06:13:10.808Z,2.70
2023-03-30T06:23:41.462Z,2.42
2023-03-30T06:34:10.256Z,2.42
2023-03-30T06:44:34.847Z,2.42
2023-03-30T06:55:04.702Z,2.70
2023-03-30T07:05:29.072Z,2.55
2023-03-30T07:16:06.462Z,2.33
2023-03-30T07:26:29.707Z,2.55
2023-03-30T07:37:01.202Z,2.30
2023-03-30T07:47:26.936Z,2.90
2023-03-30T07:57:48.691Z,2.50
2023-03-30T08:08:10.972Z,2.22
2023-03-30T08:18:33.642Z,2.40
2023-03-30T08:28:55.040Z,2.35
2023-03-30T08:39:16.374Z,2.63
2023-03-30T08:49:43.033Z,2.28
2023-03-30T09:10:47.305Z,2.25
2023-03-30T09:21:13.302Z,3.10
2023-03-30T09:31:40.906Z,3.00
2023-03-30T09:42:05.286Z,2.53
2023-03-30T09:52:28.847Z,2.45
2023-03-30T10:02:58.335Z,2.53
2023-03-30T10:13:20.345Z,2.63
2023-03-30T10:23:44.993Z,2.67
2023-03-30T10:34:34.166Z,2.20
2023-03-30T10:45:00.586Z,2.90
2023-03-30T10:55:29.289Z,2.27
2023-03-30T11:05:53.364Z,2.08
2023-03-30T11:16:17.468Z,2.13
2023-03-30T11:26:43.365Z,2.20
2023-03-30T11:37:15.534Z,2.35
2023-03-30T11:47:59.026Z,2.17
2023-03-30T11:58:37.416Z,2.20
2023-03-30T12:09:06.191Z,2.70
2023-03-30T12:19:49.133Z,2.47
2023-03-30T12:30:32.064Z,2.25
2023-03-30T12:41:02.547Z,1.83
2023-03-30T12:51:43.661Z,2.10
2023-03-30T13:02:26.339Z,1.65
2023-03-30T13:12:49.829Z,1.80
2023-03-30T13:23:11.265Z,1.63
2023-03-30T13:33:37.450Z,1.55
2023-03-30T13:44:17.372Z,1.83
2023-03-30T13:54:40.198Z,1.85
2023-03-30T14:05:33.292Z,1.40
2023-03-30T14:15:55.093Z,1.27
2023-03-30T14:26:19.231Z,1.20
2023-03-30T14:36:40.789Z,1.40
2023-03-30T14:47:02.135Z,1.65
2023-03-30T14:57:23.916Z,1.35
2023-03-30T15:07:52.144Z,1.13
2023-03-30T15:18:20.226Z,1.55
2023-03-30T15:28:48.126Z,1.38
2023-03-30T15:39:33.933Z,1.40
2023-03-30T15:49:55.806Z,1.95
2023-03-30T16:00:26.163Z,1.50
2023-03-30T16:10:48.993Z,1.40
2023-03-30T16:21:11.167Z,1.17
2023-03-30T16:31:33.084Z,1.60
2023-03-30T16:41:55.453Z,1.30
2023-03-30T16:52:16.922Z,1.42
2023-03-30T17:02:38.357Z,1.67
2023-03-30T17:13:00.763Z,1.63
2023-03-30T17:23:24.533Z,1.20
2023-03-30T17:33:46.971Z,1.60
2023-03-30T17:44:08.057Z,1.70
2023-03-30T17:54:30.591Z,1.60
2023-03-30T18:04:52.001Z,1.60
2023-03-30T18:15:13.588Z,1.40
2023-03-30T18:25:38.924Z,1.48
2023-03-30T18:36:07.985Z,1.75
2023-03-30T18:46:29.673Z,1.58
2023-03-30T18:56:51.591Z,1.77
2023-03-30T19:07:12.885Z,1.65
2023-03-30T19:17:34.086Z,1.70
2023-03-30T19:28:03.153Z,1.48
2023-03-30T19:38:25.164Z,1.65
2023-03-30T19:48:46.511Z,2.22
2023-03-30T19:59:08.335Z,1.63
2023-03-30T20:09:29.642Z,1.40
2023-03-30T20:19:50.618Z,1.20
2023-03-30T20:30:12.803Z,1.25
2023-03-30T20:40:33.868Z,1.23
2023-03-30T20:50:56.337Z,1.38
2023-03-30T21:01:25.706Z,1.10
2023-03-30T21:11:47.218Z,1.35
2023-03-30T21:22:08.490Z,1.20
2023-03-30T21:32:31.288Z,1.52
2023-03-30T21:42:52.846Z,1.27
2023-03-30T21:53:14.251Z,1.70
2023-03-30T22:03:35.737Z,1.15
2023-03-30T22:13:57.037Z,1.58
2023-03-30T22:24:19.370Z,1.48
2023-03-30T22:34:41.146Z,1.70
2023-03-30T22:45:03.417Z,1.40
2023-03-30T22:55:25.116Z,1.33
2023-03-30T23:05:53.064Z,1.27
2023-03-30T23:16:15.847Z,1.52
2023-03-30T23:26:36.921Z,1.10
2023-03-30T23:37:01.804Z,1.38
2023-03-30T23:47:23.406Z,1.10
2023-03-30T23:57:45.664Z,1.15
